Cfl Performer — PHLY — position and weather

sailwx.info

Track history (hours):
 
Tides and Currents Weather Stations Pressure Air Temp Water Temp Dewpoint Dewpoint Depression Visibility Wind Speed Wind Dir Waves Ship Positions

Cfl Performer

Last reported at 2016-Aug-30 08:23 UTC. Time now 2016-Aug-30 17:07 UTC.
Position N 40°10' W 009°49'.

Length 117 m; draft 5.8 m.

Type: Cargo ship. MMSI: 244989000.

Date/timePositionNaut miles runAvg speedWind from/ knotsBaromVisibWave heightAir tempDewpointWater temp
2016-Aug-30 08:23N 40°10' W 009°49'10 9.6
2016-Aug-30 07:18N 39°60' W 009°49'7 9.5
2016-Aug-30 06:32N 39°53' W 009°49'20 9.2
2016-Aug-30 04:22N 39°33' W 009°50'8 9.6
2016-Aug-30 03:33N 39°25' W 009°50'10 9.4
2016-Aug-30 02:32N 39°15' W 009°50'9 9.6
2016-Aug-30 01:33N 39°06' W 009°50'9 9.4
2016-Aug-30 00:33N 38°57' W 009°50'10 9.6
2016-Aug-29 23:33N 38°47' W 009°50'10 9.5
2016-Aug-29 22:33N 38°38' W 009°49'9 9.5
2016-Aug-29 21:33N 38°28' W 009°46'9 9.3
2016-Aug-29 20:33N 38°19' W 009°43'9 9.0
2016-Aug-29 19:34N 38°11' W 009°41'9 8.9
2016-Aug-29 18:33N 38°02' W 009°38'9 9.0
2016-Aug-29 17:33N 37°53' W 009°36'9 8.7
2016-Aug-29 16:33N 37°45' W 009°34'9 8.8
2016-Aug-29 15:34N 37°36' W 009°30'9 8.6
2016-Aug-29 14:33N 37°28' W 009°28'9 8.9
2016-Aug-29 13:33N 37°19' W 009°26'9 9.2
2016-Aug-29 12:33N 37°10' W 009°23'9 9.4
2016-Aug-29 11:33N 37°01' W 009°20'9 9.4
2016-Aug-29 10:33N 36°52' W 009°17'12 9.5
2016-Aug-29 09:16N 36°44' W 009°05'7 9.6
2016-Aug-29 08:33N 36°42' W 008°57'10 9.7
2016-Aug-29 07:29N 36°39' W 008°44'6510.4
2016-Aug-29 01:14N 36°18' W 007°27'9310.7
2016-Aug-28 16:33N 35°58' W 005°35'8 8.5
2016-Aug-28 15:33N 36°01' W 005°25'1110.6
2016-Aug-28 14:33N 36°03' W 005°13'12110.0
2016-Aug-28 02:25N 36°22' W 002°44'910.7
2016-Aug-28 01:33N 36°23' W 002°33'1211.4
2016-Aug-28 00:30N 36°25' W 002°18'4310.7
2016-Aug-27 20:31N 36°45' W 001°31'1310.8
2016-Aug-27 19:20N 36°51' W 001°18'1010.9
2016-Aug-27 18:28N 36°56' W 001°07'1011.1
2016-Aug-27 17:32N 37°02' W 000°56'1110.8
2016-Aug-27 16:29N 37°07' W 000°44'3310.3
2016-Aug-27 13:16N 37°24' W 000°08'2311.2
2016-Aug-27 11:14N 37°36' E 000°16'10011.1
2016-Aug-27 02:10N 38°27' E 002°06'710.6
2016-Aug-27 01:33N 38°30' E 002°13'1010.3
2016-Aug-27 00:33N 38°35' E 002°24'1110.5
2016-Aug-26 23:33N 38°40' E 002°36'1110.6
2016-Aug-26 22:33N 38°46' E 002°48'1110.7
2016-Aug-26 21:33N 38°51' E 002°60'1110.7
2016-Aug-26 20:33N 38°57' E 003°12'1110.7
2016-Aug-26 19:33N 39°02' E 003°23'1110.7
2016-Aug-26 18:33N 39°07' E 003°35'13410.7
2016-Aug-26 06:06N 40°17' E 006°04'4910.7
2016-Aug-26 01:33N 40°43' E 006°58'10110.7
2016-Aug-25 16:06N 41°19' E 009°03'9410.7
2016-Aug-25 07:19N 42°27' E 010°31'30 0.7
2016-Aug-23 14:11N 42°56' E 010°33'0 0.0
2016-Aug-23 13:23N 42°56' E 010°33'0 0.0
2016-Aug-22 17:26N 42°56' E 010°33'3 0.1
2016-Aug-21 04:24N 42°54' E 010°31'8 9.8
2016-Aug-21 03:33N 42°58' E 010°21'1110.4
2016-Aug-21 02:31N 43°04' E 010°09'1111.5
2016-Aug-21 01:33N 43°11' E 009°56'1111.3
2016-Aug-21 00:33N 43°17' E 009°44'1110.6
2016-Aug-20 23:32N 43°25' E 009°34'1110.7
2016-Aug-20 22:33N 43°35' E 009°28'3 2.6
2016-Aug-20 21:34N 43°37' E 009°26'0 0.3
2016-Aug-20 20:34N 43°37' E 009°26'0 0.5
2016-Aug-20 19:34N 43°36' E 009°26'0 0.4
2016-Aug-20 18:34N 43°36' E 009°26'7 7.1
2016-Aug-20 17:34N 43°43' E 009°23'1111.1
2016-Aug-20 16:33N 43°53' E 009°16'1111.0
2016-Aug-20 15:33N 44°03' E 009°10'1111.1
2016-Aug-20 14:34N 44°13' E 009°02'10 9.6
2016-Aug-20 13:34N 44°22' E 008°57'3 3.1
2016-Aug-20 12:32N 44°24' E 008°54'0 0.0
2016-Aug-20 11:29N 44°24' E 008°54'0 0.0
2016-Aug-20 10:32N 44°24' E 008°54'0 0.0
2016-Aug-20 09:32N 44°24' E 008°54'0 0.0
2016-Aug-20 08:29N 44°24' E 008°54'  
Track history (hours):
 
Tides and Currents Weather Stations Pressure Air Temp Water Temp Dewpoint Dewpoint Depression Visibility Wind Speed Wind Dir Waves Ship Positions

Cfl Performer

Last reported at 2016-Aug-30 08:23 UTC. Time now 2016-Aug-30 17:07 UTC.
Position N 40°10' W 009°49'.

Length 117 m; draft 5.8 m.

Type: Cargo ship. MMSI: 244989000.

Date/timePositionNaut miles runAvg speedWind from/ knotsBaromVisibWave heightAir tempDewpointWater temp
2016-Aug-30 08:23N 40°10' W 009°49'10 9.6
2016-Aug-30 07:18N 39°60' W 009°49'7 9.5
2016-Aug-30 06:32N 39°53' W 009°49'20 9.2
2016-Aug-30 04:22N 39°33' W 009°50'8 9.6
2016-Aug-30 03:33N 39°25' W 009°50'10 9.4
2016-Aug-30 02:32N 39°15' W 009°50'9 9.6
2016-Aug-30 01:33N 39°06' W 009°50'9 9.4
2016-Aug-30 00:33N 38°57' W 009°50'10 9.6
2016-Aug-29 23:33N 38°47' W 009°50'10 9.5
2016-Aug-29 22:33N 38°38' W 009°49'9 9.5
2016-Aug-29 21:33N 38°28' W 009°46'9 9.3
2016-Aug-29 20:33N 38°19' W 009°43'9 9.0
2016-Aug-29 19:34N 38°11' W 009°41'9 8.9
2016-Aug-29 18:33N 38°02' W 009°38'9 9.0
2016-Aug-29 17:33N 37°53' W 009°36'9 8.7
2016-Aug-29 16:33N 37°45' W 009°34'9 8.8
2016-Aug-29 15:34N 37°36' W 009°30'9 8.6
2016-Aug-29 14:33N 37°28' W 009°28'9 8.9
2016-Aug-29 13:33N 37°19' W 009°26'9 9.2
2016-Aug-29 12:33N 37°10' W 009°23'9 9.4
2016-Aug-29 11:33N 37°01' W 009°20'9 9.4
2016-Aug-29 10:33N 36°52' W 009°17'12 9.5
2016-Aug-29 09:16N 36°44' W 009°05'7 9.6
2016-Aug-29 08:33N 36°42' W 008°57'10 9.7
2016-Aug-29 07:29N 36°39' W 008°44'6510.4
2016-Aug-29 01:14N 36°18' W 007°27'9310.7
2016-Aug-28 16:33N 35°58' W 005°35'8 8.5
2016-Aug-28 15:33N 36°01' W 005°25'1110.6
2016-Aug-28 14:33N 36°03' W 005°13'12110.0
2016-Aug-28 02:25N 36°22' W 002°44'910.7
2016-Aug-28 01:33N 36°23' W 002°33'1211.4
2016-Aug-28 00:30N 36°25' W 002°18'4310.7
2016-Aug-27 20:31N 36°45' W 001°31'1310.8
2016-Aug-27 19:20N 36°51' W 001°18'1010.9
2016-Aug-27 18:28N 36°56' W 001°07'1011.1
2016-Aug-27 17:32N 37°02' W 000°56'1110.8
2016-Aug-27 16:29N 37°07' W 000°44'3310.3
2016-Aug-27 13:16N 37°24' W 000°08'2311.2
2016-Aug-27 11:14N 37°36' E 000°16'10011.1
2016-Aug-27 02:10N 38°27' E 002°06'710.6
2016-Aug-27 01:33N 38°30' E 002°13'1010.3
2016-Aug-27 00:33N 38°35' E 002°24'1110.5
2016-Aug-26 23:33N 38°40' E 002°36'1110.6
2016-Aug-26 22:33N 38°46' E 002°48'1110.7
2016-Aug-26 21:33N 38°51' E 002°60'1110.7
2016-Aug-26 20:33N 38°57' E 003°12'1110.7
2016-Aug-26 19:33N 39°02' E 003°23'1110.7
2016-Aug-26 18:33N 39°07' E 003°35'13410.7
2016-Aug-26 06:06N 40°17' E 006°04'4910.7
2016-Aug-26 01:33N 40°43' E 006°58'10110.7
2016-Aug-25 16:06N 41°19' E 009°03'9410.7
2016-Aug-25 07:19N 42°27' E 010°31'30 0.7
2016-Aug-23 14:11N 42°56' E 010°33'0 0.0
2016-Aug-23 13:23N 42°56' E 010°33'0 0.0
2016-Aug-22 17:26N 42°56' E 010°33'3 0.1
2016-Aug-21 04:24N 42°54' E 010°31'8 9.8
2016-Aug-21 03:33N 42°58' E 010°21'1110.4
2016-Aug-21 02:31N 43°04' E 010°09'1111.5
2016-Aug-21 01:33N 43°11' E 009°56'1111.3
2016-Aug-21 00:33N 43°17' E 009°44'1110.6
2016-Aug-20 23:32N 43°25' E 009°34'1110.7
2016-Aug-20 22:33N 43°35' E 009°28'3 2.6
2016-Aug-20 21:34N 43°37' E 009°26'0 0.3
2016-Aug-20 20:34N 43°37' E 009°26'0 0.5
2016-Aug-20 19:34N 43°36' E 009°26'0 0.4
2016-Aug-20 18:34N 43°36' E 009°26'7 7.1
2016-Aug-20 17:34N 43°43' E 009°23'1111.1
2016-Aug-20 16:33N 43°53' E 009°16'1111.0
2016-Aug-20 15:33N 44°03' E 009°10'1111.1
2016-Aug-20 14:34N 44°13' E 009°02'10 9.6
2016-Aug-20 13:34N 44°22' E 008°57'3 3.1
2016-Aug-20 12:32N 44°24' E 008°54'0 0.0
2016-Aug-20 11:29N 44°24' E 008°54'0 0.0
2016-Aug-20 10:32N 44°24' E 008°54'0 0.0
2016-Aug-20 09:32N 44°24' E 008°54'0 0.0
2016-Aug-20 08:29N 44°24' E 008°54'  

Dump ship's entire track history